River Forest, Illinois
Current Conditions -  °F | °C
As of 8:53 AM on Saturday 20 Dec 2014 (Local Time) from KMDW Reporting Station
Overcast Overcast  
Wind Chill: -3°   Ceiling: 7000
Heat Index:   Visibility: 9mi
Dew Point: -3°   Wind: 5mph
Humidity: 79%   Direction: 200°SSW
Pressure: 30.29"   Gusts: NA
Location:  41.88°N, 87.82°W
Report Text: KMDW 201453Z 20004KT 9SM FEW024 OVC070 00/M03 A3029 RMK AO2 SLP268 T00001033 53002 $
Loading
Personal Weather Stations






























Interactive Weather Map New forecast layout! Learn more

10-Day Weather Forecast

Advertisements
Track Severe Weather on mobile